Time;durP1;ratioP1;P1;durP2;ratioP2;P2;SDS_P1;SDS_P2;PMS_P1;PMS_P2;Temp;Humidity;BMP_temperature;BMP_pressure;BME280_temperature;BME280_humidity;BME280_pressure;Samples;Min_cycle;Max_cycle;Signal;HPM_P1;HPM_P2
2022/04/02 00:09:44;;;;;;;0.20;0.10;;;6.60;99.90;;;;;;25380268;23;20191;-62
2022/04/02 00:19:49;;;;;;;0.20;0.10;;;6.40;99.90;;;;;;25382606;23;20418;-62
2022/04/02 00:29:54;;;;;;;0.20;0.10;;;6.10;99.90;;;;;;25405456;23;20202;-63
2022/04/02 00:39:58;;;;;;;0.20;0.10;;;6.00;99.90;;;;;;25404758;23;20206;-63
2022/04/02 00:50:03;;;;;;;0.20;0.10;;;5.80;99.90;;;;;;25380312;23;20200;-62
2022/04/02 01:00:08;;;;;;;0.20;0.10;;;5.70;99.90;;;;;;25406736;23;20172;-62
2022/04/02 01:10:14;;;;;;;0.20;0.10;;;5.70;99.90;;;;;;25403867;23;20187;-62
2022/04/02 01:20:19;;;;;;;0.20;0.10;;;5.60;99.90;;;;;;25404663;23;20204;-62
2022/04/02 01:30:24;;;;;;;0.20;0.10;;;5.50;99.90;;;;;;25378228;23;20234;-62
2022/04/02 01:40:28;;;;;;;0.20;0.10;;;5.60;99.90;;;;;;25404469;23;20168;-62
2022/04/02 01:50:33;;;;;;;0.20;0.10;;;5.50;99.90;;;;;;25402510;23;20199;-63
2022/04/02 02:00:37;;;;;;;0.20;0.10;;;5.50;99.90;;;;;;25376780;23;20164;-62
2022/04/02 02:10:42;;;;;;;0.20;0.10;;;5.70;99.90;;;;;;25403921;23;20283;-63
2022/04/02 02:20:46;;;;;;;0.20;0.10;;;5.90;99.90;;;;;;25402329;23;20187;-63
2022/04/02 02:30:52;;;;;;;0.20;0.10;;;5.90;99.90;;;;;;25403184;23;20218;-62
2022/04/02 02:40:56;;;;;;;0.20;0.10;;;5.80;99.90;;;;;;25400699;23;20167;-62
2022/04/02 02:51:02;;;;;;;0.20;0.10;;;5.70;99.90;;;;;;25402076;23;20214;-62
2022/04/02 03:01:06;;;;;;;0.20;0.10;;;5.40;99.90;;;;;;25374509;23;20190;-75
2022/04/02 03:11:11;;;;;;;0.20;0.10;;;5.50;99.90;;;;;;25402431;23;20198;-74
2022/04/02 03:21:15;;;;;;;0.20;0.10;;;5.60;99.90;;;;;;25384117;23;20202;-74
2022/04/02 03:31:22;;;;;;;0.20;0.10;;;5.50;99.90;;;;;;25414948;23;20202;-75
2022/04/02 03:41:26;;;;;;;0.20;0.10;;;5.40;99.90;;;;;;25410429;23;20183;-75
2022/04/02 03:51:31;;;;;;;0.20;0.10;;;5.50;99.90;;;;;;25410156;23;20199;-62
2022/04/02 04:01:35;;;;;;;0.20;0.10;;;5.40;99.90;;;;;;25408804;23;20171;-62
2022/04/02 04:11:41;;;;;;;0.20;0.10;;;5.40;99.90;;;;;;25406385;23;20195;-63
2022/04/02 04:21:45;;;;;;;0.20;0.10;;;5.20;99.90;;;;;;25408080;23;20168;-63
2022/04/02 04:31:50;;;;;;;0.20;0.10;;;5.30;99.90;;;;;;25405593;23;20215;-62
2022/04/02 04:41:54;;;;;;;0.20;0.10;;;4.90;99.90;;;;;;25381573;23;20199;-63
2022/04/02 04:51:59;;;;;;;0.20;0.10;;;4.10;99.90;;;;;;25403766;23;20223;-63
2022/04/02 05:02:04;;;;;;;0.20;0.10;;;4.30;99.90;;;;;;25379931;23;20172;-62
2022/04/02 05:12:11;;;;;;;0.20;0.10;;;4.20;99.90;;;;;;25404686;23;20235;-62
2022/04/02 05:22:16;;;;;;;0.20;0.20;;;4.00;99.90;;;;;;25405387;23;20179;-63
2022/04/02 05:32:22;;;;;;;0.20;0.10;;;4.10;99.90;;;;;;25403200;23;20198;-63
2022/04/02 05:42:26;;;;;;;0.20;0.10;;;3.90;99.90;;;;;;25377913;23;20172;-63
2022/04/02 05:52:31;;;;;;;0.20;0.10;;;3.80;99.90;;;;;;25403256;23;20183;-62
2022/04/02 06:02:36;;;;;;;0.20;0.20;;;4.00;99.90;;;;;;25401595;23;20171;-62
2022/04/02 06:12:41;;;;;;;0.20;0.10;;;4.40;99.90;;;;;;25373277;23;20226;-63
2022/04/02 06:22:45;;;;;;;0.20;0.10;;;4.60;99.90;;;;;;25398288;23;20270;-63
2022/04/02 06:32:50;;;;;;;0.20;0.10;;;5.20;99.90;;;;;;25399645;23;20207;-61
2022/04/02 06:42:56;;;;;;;0.20;0.10;;;5.50;99.90;;;;;;25372138;23;20211;-61
2022/04/02 06:53:01;;;;;;;0.20;0.20;;;6.10;99.90;;;;;;25406769;23;20195;-63
2022/04/02 07:03:09;;;;;;;0.20;0.20;;;6.30;99.90;;;;;;25406901;23;20191;-63
2022/04/02 07:13:15;;;;;;;0.20;0.10;;;6.40;99.90;;;;;;25383679;23;20207;-63
2022/04/02 07:23:20;;;;;;;0.20;0.10;;;6.60;99.90;;;;;;25409872;23;20404;-62
2022/04/02 07:33:25;;;;;;;0.20;0.10;;;6.90;99.90;;;;;;25403902;23;20214;-62
2022/04/02 07:43:37;;;;;;;0.20;0.10;;;7.40;99.90;;;;;;25378182;23;20388;-62
2022/04/02 07:53:46;;;;;;;0.20;0.10;;;7.30;99.90;;;;;;25405063;23;20206;-62
2022/04/02 08:03:51;;;;;;;0.20;0.10;;;7.50;99.90;;;;;;25402838;23;20191;-62
2022/04/02 08:13:58;;;;;;;0.20;0.10;;;7.50;99.90;;;;;;25402149;23;20211;-63
2022/04/02 08:24:03;;;;;;;0.20;0.10;;;7.70;99.90;;;;;;25401878;23;20202;-62
2022/04/02 08:34:14;;;;;;;0.20;0.10;;;8.20;99.90;;;;;;25374278;23;20454;-63
2022/04/02 08:45:04;;;;;;;0.20;0.10;;;8.70;99.90;;;;;;25399503;23;20222;-62
2022/04/02 08:55:15;;;;;;;0.20;0.10;;;9.20;99.90;;;;;;25395779;23;20215;-62
2022/04/02 09:05:24;;;;;;;0.20;0.10;;;9.50;99.90;;;;;;25396820;23;20167;-61
2022/04/02 09:15:49;;;;;;;0.20;0.10;;;9.90;99.90;;;;;;25398183;23;20203;-63
2022/04/02 09:26:24;;;;;;;0.20;0.10;;;10.30;99.90;;;;;;25401102;23;20183;-63
2022/04/02 09:36:38;;;;;;;0.30;0.30;;;10.70;99.90;;;;;;25398312;23;20184;-61
2022/04/02 09:46:59;;;;;;;0.20;0.10;;;10.90;99.90;;;;;;25394011;23;20271;-62
2022/04/02 09:57:10;;;;;;;0.20;0.10;;;11.50;99.90;;;;;;25394387;23;20396;-63
2022/04/02 10:07:22;;;;;;;0.20;0.10;;;11.80;99.90;;;;;;25405132;23;20167;-64
2022/04/02 10:17:29;;;;;;;0.20;0.20;;;12.30;99.90;;;;;;25380158;23;20222;-63
2022/04/02 10:27:35;;;;;;;0.20;0.10;;;12.50;99.90;;;;;;25402201;23;20194;-65
2022/04/02 10:37:42;;;;;;;0.20;0.10;;;12.70;99.90;;;;;;25402253;23;20210;-63
2022/04/02 10:47:48;;;;;;;0.20;0.10;;;13.00;99.90;;;;;;25380087;23;20198;-62
2022/04/02 10:57:56;;;;;;;0.20;0.10;;;13.40;99.90;;;;;;25404404;23;20195;-62
2022/04/02 11:08:05;;;;;;;0.20;0.10;;;13.60;99.90;;;;;;25403081;23;20183;-61
2022/04/02 11:18:19;;;;;;;0.20;0.10;;;14.00;99.20;;;;;;25403891;23;20206;-63
2022/04/02 11:28:23;;;;;;;0.20;0.10;;;14.80;98.40;;;;;;25402750;23;20164;-63
2022/04/02 11:38:36;;;;;;;0.20;0.10;;;14.80;97.10;;;;;;25408477;23;20219;-62
2022/04/02 11:48:52;;;;;;;0.20;0.10;;;16.00;97.00;;;;;;25411748;23;20199;-65
2022/04/02 11:58:59;;;;;;;0.20;0.10;;;15.90;97.80;;;;;;25409895;23;20191;-62
2022/04/02 12:09:12;;;;;;;0.63;0.63;;;16.00;96.70;;;;;;25409967;23;20168;-62
2022/04/02 12:19:21;;;;;;;0.20;0.10;;;16.20;96.40;;;;;;25409507;23;20209;-63
2022/04/02 12:29:25;;;;;;;0.83;0.83;;;16.80;95.00;;;;;;25412511;23;20170;-62
2022/04/02 12:39:30;;;;;;;0.20;0.10;;;16.30;92.40;;;;;;25382290;23;20210;-63
2022/04/02 12:49:37;;;;;;;0.20;0.20;;;16.40;91.20;;;;;;25407863;23;20317;-62
2022/04/02 12:59:53;;;;;;;0.20;0.10;;;18.20;89.80;;;;;;25411443;23;20190;-63
2022/04/02 13:09:57;;;;;;;0.20;0.10;;;18.60;85.60;;;;;;25409428;23;20164;-62
2022/04/02 13:30:33;;;;;;;0.20;0.10;;;19.20;82.90;;;;;;25410418;23;20187;-63
2022/04/02 13:40:40;;;;;;;0.63;0.63;;;19.90;81.60;;;;;;25410202;23;20842;-62
2022/04/02 13:50:55;;;;;;;0.20;0.10;;;21.60;79.70;;;;;;25408041;23;20207;-62
2022/04/02 14:01:06;;;;;;;0.20;0.00;;;23.30;77.70;;;;;;25384939;23;20174;-62
2022/04/02 14:11:19;;;;;;;0.30;0.30;;;21.80;93.20;;;;;;25406376;23;20210;-62
2022/04/02 14:21:30;;;;;;;0.20;0.10;;;22.10;96.80;;;;;;25408830;23;20183;-67
2022/04/02 14:32:05;;;;;;;0.20;0.07;;;21.80;96.30;;;;;;25409544;23;20202;-67
2022/04/02 14:42:11;;;;;;;0.20;0.10;;;20.80;96.60;;;;;;25403058;23;20163;-67
2022/04/02 14:52:55;;;;;;;0.20;0.00;;;22.10;94.40;;;;;;25382169;23;20202;-67
2022/04/02 15:03:39;;;;;;;0.20;0.00;;;21.00;93.90;;;;;;25405071;23;20182;-67
2022/04/02 15:13:53;;;;;;;0.20;0.07;;;22.50;91.70;;;;;;25409168;23;20194;-67
2022/04/02 15:24:13;;;;;;;0.20;0.00;;;21.40;90.30;;;;;;25410635;23;20156;-68
2022/04/02 15:34:17;;;;;;;0.20;0.10;;;22.50;88.50;;;;;;25410502;23;20183;-67
2022/04/02 15:44:22;;;;;;;0.30;0.30;;;21.80;87.30;;;;;;25385106;23;20207;-69
2022/04/02 15:54:26;;;;;;;0.20;0.10;;;19.50;93.80;;;;;;25407506;23;20196;-63
2022/04/02 16:04:31;;;;;;;0.20;0.10;;;17.70;99.90;;;;;;25388489;23;20172;-63
2022/04/02 16:14:35;;;;;;;0.20;0.10;;;17.10;99.90;;;;;;25409044;23;20253;-63
2022/04/02 16:24:42;;;;;;;0.20;0.10;;;16.60;99.90;;;;;;25382649;23;20171;-62
2022/04/02 16:34:46;;;;;;;0.33;0.33;;;14.40;99.90;;;;;;25407089;23;20717;-63
2022/04/02 16:44:53;;;;;;;0.20;0.03;;;13.90;99.90;;;;;;25408142;23;20188;-62
2022/04/02 16:54:58;;;;;;;0.20;0.10;;;13.70;99.90;;;;;;25407894;23;20188;-63
2022/04/02 17:05:06;;;;;;;0.20;0.10;;;12.80;99.90;;;;;;25407558;23;20182;-64
2022/04/02 17:15:10;;;;;;;0.20;0.07;;;13.60;99.90;;;;;;25405389;23;20210;-63
2022/04/02 17:25:15;;;;;;;0.20;0.10;;;13.10;99.90;;;;;;25407132;23;20178;-64
2022/04/02 17:35:20;;;;;;;0.20;0.10;;;13.00;99.90;;;;;;25408127;23;20203;-63
2022/04/02 17:45:36;;;;;;;0.20;0.10;;;13.00;99.90;;;;;;25405722;23;20210;-61
2022/04/02 17:55:40;;;;;;;0.20;0.10;;;11.90;99.90;;;;;;25402314;23;20206;-63
2022/04/02 18:05:48;;;;;;;0.20;0.10;;;11.40;99.90;;;;;;25406019;23;20160;-64
2022/04/02 18:15:51;;;;;;;0.20;0.10;;;11.30;99.90;;;;;;25406564;23;20210;-62
2022/04/02 18:25:57;;;;;;;0.20;0.10;;;11.00;99.90;;;;;;25406072;23;20175;-63
2022/04/02 18:36:02;;;;;;;0.20;0.10;;;10.90;99.90;;;;;;25406771;23;20199;-64
2022/04/02 18:46:07;;;;;;;0.20;0.10;;;10.80;99.90;;;;;;25404809;23;20208;-63
2022/04/02 18:56:11;;;;;;;0.20;0.10;;;10.70;99.90;;;;;;25407948;23;20186;-62
2022/04/02 19:06:16;;;;;;;0.20;0.10;;;10.80;99.90;;;;;;25404124;23;20179;-63
2022/04/02 19:16:20;;;;;;;0.20;0.10;;;10.50;99.90;;;;;;25406973;23;20194;-74
2022/04/02 19:26:31;;;;;;;1.70;1.13;;;10.60;99.90;;;;;;25407520;23;20164;-76
2022/04/02 19:36:35;;;;;;;0.20;0.10;;;10.60;99.90;;;;;;25407574;23;20182;-76
2022/04/02 19:46:42;;;;;;;0.20;0.10;;;10.80;99.90;;;;;;25381848;23;20195;-75
2022/04/02 19:56:46;;;;;;;0.20;0.10;;;10.70;99.90;;;;;;25409748;23;20191;-77
2022/04/02 20:06:51;;;;;;;0.20;0.10;;;10.60;99.90;;;;;;25411325;23;20168;-68
2022/04/02 20:16:55;;;;;;;0.20;0.10;;;10.50;99.90;;;;;;25409328;23;20195;-67
2022/04/02 20:27:01;;;;;;;0.20;0.10;;;9.70;99.90;;;;;;25409572;23;20175;-67
2022/04/02 20:37:05;;;;;;;0.20;0.10;;;9.30;99.90;;;;;;25386404;23;20202;-67
2022/04/02 20:47:12;;;;;;;0.20;0.10;;;8.70;99.90;;;;;;25409990;23;20207;-67
2022/04/02 20:57:16;;;;;;;0.20;0.10;;;8.50;99.90;;;;;;25407705;23;20202;-67
2022/04/02 21:07:22;;;;;;;0.20;0.10;;;8.10;99.90;;;;;;25408628;23;20178;-67
2022/04/02 21:17:26;;;;;;;0.20;0.10;;;7.90;99.90;;;;;;25404907;23;20202;-67
2022/04/02 21:27:32;;;;;;;0.20;0.10;;;7.80;99.90;;;;;;25408307;23;20168;-66
2022/04/02 21:37:35;;;;;;;0.20;0.10;;;7.70;99.90;;;;;;25409705;23;20191;-76
2022/04/02 21:47:41;;;;;;;0.20;0.10;;;7.90;99.90;;;;;;25384264;23;20206;-79
2022/04/02 21:57:44;;;;;;;0.20;0.10;;;7.60;99.90;;;;;;25407688;23;20191;-77
2022/04/02 22:07:50;;;;;;;0.20;0.10;;;7.70;99.90;;;;;;25408709;23;20183;-78
2022/04/02 22:17:54;;;;;;;4.90;2.20;;;7.80;99.90;;;;;;25407243;23;20306;-77
2022/04/02 22:28:00;;;;;;;0.20;0.10;;;7.70;99.90;;;;;;25380494;23;20175;-78
2022/04/02 22:38:04;;;;;;;0.20;0.20;;;7.60;99.90;;;;;;25403295;23;20534;-75
2022/04/02 22:48:09;;;;;;;0.20;0.10;;;7.40;99.90;;;;;;25401503;23;20202;-75
2022/04/02 22:58:13;;;;;;;0.20;0.10;;;7.40;99.90;;;;;;25403807;23;20191;-67
2022/04/02 23:08:19;;;;;;;0.20;0.10;;;7.40;99.90;;;;;;25398078;23;20259;-66
2022/04/02 23:18:24;;;;;;;0.20;0.10;;;7.60;99.90;;;;;;25401520;23;20477;-66
2022/04/02 23:28:29;;;;;;;0.20;0.10;;;7.70;99.90;;;;;;25402050;23;20167;-63
2022/04/02 23:38:33;;;;;;;0.20;0.10;;;7.80;99.90;;;;;;25409473;23;20259;-63
2022/04/02 23:48:38;;;;;;;0.20;0.10;;;7.90;99.90;;;;;;25383656;23;20228;-66
2022/04/02 23:58:43;;;;;;;0.20;0.10;;;7.90;99.90;;;;;;25385351;23;20183;-67
